Time,TemperatureF,DewpointF,PressureIn,WindDirection,WindDirectionDegrees,WindSpeedMPH,WindSpeedGustMPH,Humidity,HourlyPrecipIn,Conditions,Clouds,dailyrainin,SoftwareType,DateUTC
2013-03-14 00:14:00,34.5,30.0,30.02,NW,313,0.0,-999.0,83,-99.99,,,0.09,weatherlink.com 1.10,2013-03-14 00:14:00,
2013-03-14 00:29:00,34.3,30.0,30.02,NW,312,0.0,-999.0,84,-99.99,,,0.09,weatherlink.com 1.10,2013-03-14 00:29:00,
2013-03-14 00:44:00,34.0,30.0,30.02,WNW,296,0.0,-999.0,84,-99.99,,,0.09,weatherlink.com 1.10,2013-03-14 00:44:00,
2013-03-14 00:59:00,33.8,30.0,30.02,WNW,288,0.0,-999.0,84,-99.99,,,0.09,weatherlink.com 1.10,2013-03-14 00:59:00,
2013-03-14 01:14:00,33.6,30.0,30.03,NW,313,0.0,-999.0,85,-99.99,,,0.09,weatherlink.com 1.10,2013-03-14 01:14:00,
2013-03-14 01:29:00,33.2,29.0,30.03,WNW,286,0.0,-999.0,85,-99.99,,,0.09,weatherlink.com 1.10,2013-03-14 01:29:00,
2013-03-14 01:45:00,32.8,29.0,30.03,WNW,284,0.0,-999.0,86,-99.99,,,0.09,weatherlink.com 1.10,2013-03-14 01:45:00,
2013-03-14 02:00:00,32.5,29.0,30.03,WNW,284,0.0,-999.0,86,-99.99,,,0.09,weatherlink.com 1.10,2013-03-14 02:00:00,
2013-03-14 02:15:00,32.6,29.0,30.03,West,273,0.0,-999.0,87,-99.99,,,0.09,weatherlink.com 1.10,2013-03-14 02:15:00,
2013-03-14 02:30:00,32.4,29.0,30.03,West,274,0.0,-999.0,86,-99.99,,,0.09,weatherlink.com 1.10,2013-03-14 02:30:00,
2013-03-14 02:45:00,32.3,29.0,30.03,West,275,0.0,-999.0,87,-99.99,,,0.09,weatherlink.com 1.10,2013-03-14 02:45:00,
2013-03-14 03:00:00,32.3,29.0,30.03,West,275,0.0,-999.0,87,-99.99,,,0.09,weatherlink.com 1.10,2013-03-14 03:00:00,
2013-03-14 03:15:00,32.2,29.0,30.02,West,270,0.0,-999.0,87,-99.99,,,0.09,weatherlink.com 1.10,2013-03-14 03:15:00,
2013-03-14 03:30:00,32.1,29.0,30.02,West,281,0.0,-999.0,88,-99.99,,,0.09,weatherlink.com 1.10,2013-03-14 03:30:00,
2013-03-14 03:45:00,32.0,29.0,30.02,West,279,0.0,-999.0,88,-99.99,,,0.09,weatherlink.com 1.10,2013-03-14 03:45:00,
2013-03-14 04:00:00,32.0,29.0,30.02,WNW,285,0.0,-999.0,88,-99.99,,,0.09,weatherlink.com 1.10,2013-03-14 04:00:00,
2013-03-14 04:15:00,32.2,29.0,30.02,WNW,286,0.0,-999.0,88,-99.99,,,0.09,weatherlink.com 1.10,2013-03-14 04:15:00,
2013-03-14 04:30:00,32.4,29.0,30.01,West,281,0.0,-999.0,88,-99.99,,,0.09,weatherlink.com 1.10,2013-03-14 04:30:00,
2013-03-14 04:45:00,32.5,29.0,30.01,WNW,283,0.0,-999.0,88,-99.99,,,0.09,weatherlink.com 1.10,2013-03-14 04:45:00,
2013-03-14 05:00:00,32.6,30.0,30.01,West,281,0.0,-999.0,88,-99.99,,,0.09,weatherlink.com 1.10,2013-03-14 05:00:00,
2013-03-14 05:15:00,32.6,29.0,30.01,WNW,282,0.0,-999.0,87,-99.99,,,0.09,weatherlink.com 1.10,2013-03-14 05:15:00,
2013-03-14 05:30:00,32.6,29.0,30.01,West,281,0.0,-999.0,87,-99.99,,,0.09,weatherlink.com 1.10,2013-03-14 05:30:00,
2013-03-14 05:45:00,32.8,29.0,30.00,West,281,0.0,-999.0,87,-99.99,,,0.09,weatherlink.com 1.10,2013-03-14 05:45:00,
2013-03-14 06:00:00,32.9,30.0,30.01,West,281,0.0,-999.0,87,-99.99,,,0.09,weatherlink.com 1.10,2013-03-14 06:00:00,
2013-03-14 06:15:00,32.7,29.0,30.00,West,277,0.0,-999.0,87,-99.99,,,0.09,weatherlink.com 1.10,2013-03-14 06:15:00,
2013-03-14 06:30:00,32.8,29.0,30.00,West,272,0.0,-999.0,87,-99.99,,,0.09,weatherlink.com 1.10,2013-03-14 06:30:00,
2013-03-14 06:45:00,33.0,30.0,30.01,West,273,0.0,-999.0,87,-99.99,,,0.09,weatherlink.com 1.10,2013-03-14 06:45:00,
2013-03-14 07:00:00,33.2,30.0,30.01,West,273,0.0,-999.0,87,-99.99,,,0.09,weatherlink.com 1.10,2013-03-14 07:00:00,
2013-03-14 07:15:00,33.5,30.0,30.00,West,275,0.0,-999.0,87,-99.99,,,0.09,weatherlink.com 1.10,2013-03-14 07:15:00,
2013-03-14 07:30:00,33.9,31.0,30.00,West,279,0.0,-999.0,88,-99.99,,,0.09,weatherlink.com 1.10,2013-03-14 07:30:00,
2013-03-14 07:45:00,34.6,31.0,30.00,West,264,0.0,-999.0,88,-99.99,,,0.09,weatherlink.com 1.10,2013-03-14 07:45:00,
2013-03-14 08:00:00,35.5,32.0,30.00,West,272,0.0,-999.0,87,-99.99,,,0.09,weatherlink.com 1.10,2013-03-14 08:00:00,
2013-03-14 08:15:00,36.3,33.0,30.00,WSW,246,0.0,-999.0,87,-99.99,,,0.09,weatherlink.com 1.10,2013-03-14 08:15:00,
2013-03-14 08:30:00,37.0,33.0,30.00,WSW,256,0.0,-999.0,86,-99.99,,,0.09,weatherlink.com 1.10,2013-03-14 08:30:00,
2013-03-14 08:45:00,37.3,33.0,30.00,West,267,0.0,-999.0,85,-99.99,,,0.09,weatherlink.com 1.10,2013-03-14 08:45:00,
2013-03-14 09:00:00,37.6,34.0,29.99,WNW,284,0.0,-999.0,85,-99.99,,,0.09,weatherlink.com 1.10,2013-03-14 09:00:00,
2013-03-14 09:15:00,37.9,34.0,29.99,West,276,0.0,-999.0,85,-99.99,,,0.09,weatherlink.com 1.10,2013-03-14 09:15:00,
2013-03-14 09:30:00,38.9,35.0,29.99,West,267,0.0,-999.0,84,-99.99,,,0.09,weatherlink.com 1.10,2013-03-14 09:30:00,
2013-03-14 09:45:00,39.6,35.0,29.98,West,275,0.0,-999.0,82,-99.99,,,0.09,weatherlink.com 1.10,2013-03-14 09:45:00,
2013-03-14 10:00:00,40.3,35.0,29.98,WSW,257,0.0,-999.0,81,-99.99,,,0.00,weatherlink.com 1.10,2013-03-14 10:00:00,
2013-03-14 10:15:00,41.0,36.0,29.98,West,275,0.0,-999.0,81,-99.99,,,0.00,weatherlink.com 1.10,2013-03-14 10:15:00,
2013-03-14 10:30:00,41.8,36.0,29.97,WSW,252,0.0,-999.0,79,-99.99,,,0.00,weatherlink.com 1.10,2013-03-14 10:30:00,
2013-03-14 10:45:00,42.5,35.0,29.96,WSW,254,0.0,-999.0,76,-99.99,,,0.00,weatherlink.com 1.10,2013-03-14 10:45:00,
2013-03-14 11:00:00,43.5,37.0,29.96,West,260,0.0,-999.0,77,-99.99,,,0.00,weatherlink.com 1.10,2013-03-14 11:00:00,
2013-03-14 11:15:00,43.4,37.0,29.95,WNW,286,0.0,-999.0,77,-99.99,,,0.00,weatherlink.com 1.10,2013-03-14 11:15:00,
2013-03-14 11:30:00,43.3,37.0,29.95,West,276,0.0,-999.0,78,-99.99,,,0.00,weatherlink.com 1.10,2013-03-14 11:30:00,
2013-03-14 11:45:00,43.8,37.0,29.94,WNW,287,0.0,-999.0,78,-99.99,,,0.00,weatherlink.com 1.10,2013-03-14 11:45:00,
2013-03-14 12:00:00,44.4,38.0,29.93,West,263,0.0,-999.0,77,-99.99,,,0.00,weatherlink.com 1.10,2013-03-14 12:00:00,
2013-03-14 12:15:00,44.8,38.0,29.93,West,275,0.0,-999.0,77,-99.99,,,0.00,weatherlink.com 1.10,2013-03-14 12:15:00,
2013-03-14 12:30:00,45.3,38.0,29.92,WSW,257,0.0,-999.0,76,-99.99,,,0.00,weatherlink.com 1.10,2013-03-14 12:30:00,
2013-03-14 12:45:00,45.5,39.0,29.92,West,267,0.0,-999.0,77,-99.99,,,0.00,weatherlink.com 1.10,2013-03-14 12:45:00,
2013-03-14 13:00:00,45.4,39.0,29.90,SW,222,0.0,-999.0,78,-99.99,,,0.00,weatherlink.com 1.10,2013-03-14 13:00:00,
2013-03-14 13:16:00,46.4,39.0,29.90,WSW,253,0.0,-999.0,76,-99.99,,,0.00,weatherlink.com 1.10,2013-03-14 13:16:00,
2013-03-14 13:31:00,46.9,39.0,29.89,West,266,0.0,-999.0,75,-99.99,,,0.00,weatherlink.com 1.10,2013-03-14 13:31:00,
2013-03-14 13:46:00,47.6,40.0,29.89,WSW,251,0.0,-999.0,74,-99.99,,,0.00,weatherlink.com 1.10,2013-03-14 13:46:00,
2013-03-14 14:01:00,47.4,39.0,29.89,West,279,0.0,-999.0,73,-99.99,,,0.00,weatherlink.com 1.10,2013-03-14 14:01:00,
2013-03-14 14:16:00,46.8,40.0,29.88,West,272,0.0,-999.0,78,-99.99,,,0.00,weatherlink.com 1.10,2013-03-14 14:16:00,
2013-03-14 14:31:00,47.1,40.0,29.87,West,259,0.0,-999.0,76,-99.99,,,0.00,weatherlink.com 1.10,2013-03-14 14:31:00,
2013-03-14 15:46:00,45.9,40.0,29.85,West,271,0.0,-999.0,81,-99.99,,,0.00,weatherlink.com 1.10,2013-03-14 15:46:00,
2013-03-14 16:16:00,46.3,39.0,29.84,West,265,0.0,-999.0,77,-99.99,,,0.00,weatherlink.com 1.10,2013-03-14 16:16:00,
2013-03-14 16:31:00,45.6,39.0,29.84,West,274,0.0,-999.0,79,-99.99,,,0.00,weatherlink.com 1.10,2013-03-14 16:31:00,
2013-03-14 16:46:00,44.8,40.0,29.84,West,268,0.0,-999.0,83,-99.99,,,0.00,weatherlink.com 1.10,2013-03-14 16:46:00,
2013-03-14 17:01:00,44.4,39.0,29.84,West,273,0.0,-999.0,82,-99.99,,,0.00,weatherlink.com 1.10,2013-03-14 17:01:00,
2013-03-14 17:31:00,44.2,39.0,29.82,West,269,0.0,-999.0,82,-99.99,,,0.00,weatherlink.com 1.10,2013-03-14 17:31:00,
2013-03-14 17:46:00,44.2,39.0,29.82,West,264,0.0,-999.0,82,-99.99,,,0.00,weatherlink.com 1.10,2013-03-14 17:46:00,
2013-03-14 18:31:00,44.1,39.0,29.81,WSW,246,0.0,-999.0,82,-99.99,,,0.00,weatherlink.com 1.10,2013-03-14 18:31:00,
2013-03-14 18:46:00,44.2,39.0,29.81,WSW,257,0.0,-999.0,81,-99.99,,,0.00,weatherlink.com 1.10,2013-03-14 18:46:00,
2013-03-14 19:16:00,44.1,38.0,29.79,West,262,0.0,-999.0,79,-99.99,,,0.00,weatherlink.com 1.10,2013-03-14 19:16:00,
2013-03-14 19:31:00,43.9,38.0,29.79,SW,220,0.0,-999.0,79,-99.99,,,0.00,weatherlink.com 1.10,2013-03-14 19:31:00,
2013-03-14 19:46:00,43.7,38.0,29.79,West,271,0.0,-999.0,80,-99.99,,,0.00,weatherlink.com 1.10,2013-03-14 19:46:00,
2013-03-14 20:01:00,43.4,38.0,29.78,WSW,244,0.0,-999.0,80,-99.99,,,0.00,weatherlink.com 1.10,2013-03-14 20:01:00,
2013-03-14 20:16:00,43.3,37.0,29.78,West,259,0.0,-999.0,79,-99.99,,,0.00,weatherlink.com 1.10,2013-03-14 20:16:00,
2013-03-14 20:31:00,43.2,37.0,29.77,West,268,0.0,-999.0,79,-99.99,,,0.00,weatherlink.com 1.10,2013-03-14 20:31:00,
2013-03-14 20:46:00,43.2,37.0,29.76,West,268,0.0,-999.0,80,-99.99,,,0.00,weatherlink.com 1.10,2013-03-14 20:46:00,
2013-03-14 21:01:00,42.9,37.0,29.75,West,263,0.0,-999.0,81,-99.99,,,0.00,weatherlink.com 1.10,2013-03-14 21:01:00,
2013-03-14 21:16:00,42.7,38.0,29.75,WSW,254,0.0,-999.0,82,-99.99,,,0.00,weatherlink.com 1.10,2013-03-14 21:16:00,
2013-03-14 21:31:00,42.7,37.0,29.74,WSW,256,0.0,-999.0,81,-99.99,,,0.00,weatherlink.com 1.10,2013-03-14 21:31:00,
2013-03-14 21:46:00,42.6,38.0,29.73,WNW,290,0.0,-999.0,82,-99.99,,,0.00,weatherlink.com 1.10,2013-03-14 21:46:00,
2013-03-14 22:01:00,42.9,38.0,29.73,West,265,0.0,-999.0,82,-99.99,,,0.00,weatherlink.com 1.10,2013-03-14 22:01:00,
2013-03-14 22:16:00,42.9,38.0,29.72,SW,232,0.0,-999.0,83,-99.99,,,0.00,weatherlink.com 1.10,2013-03-14 22:16:00,
2013-03-14 22:31:00,43.0,38.0,29.71,SW,230,0.0,-999.0,83,-99.99,,,0.00,weatherlink.com 1.10,2013-03-14 22:31:00,
2013-03-14 22:47:00,43.0,38.0,29.70,West,279,0.0,-999.0,83,-99.99,,,0.00,weatherlink.com 1.10,2013-03-14 22:47:00,
2013-03-14 23:02:00,42.9,38.0,29.69,WSW,244,0.0,-999.0,83,-99.99,,,0.00,weatherlink.com 1.10,2013-03-14 23:02:00,
2013-03-14 23:17:00,42.9,38.0,29.68,WSW,243,0.0,-999.0,83,-99.99,,,0.00,weatherlink.com 1.10,2013-03-14 23:17:00,
2013-03-14 23:32:00,42.7,38.0,29.68,West,269,0.0,-999.0,83,-99.99,,,0.00,weatherlink.com 1.10,2013-03-14 23:32:00,
2013-03-14 23:47:00,42.6,38.0,29.67,WSW,248,0.0,-999.0,84,-99.99,,,0.00,weatherlink.com 1.10,2013-03-14 23:47:00,